sensor_id;sensor_type;location;lat;lon;timestamp;temperature;humidity
5061;DHT22;2549;52.128;21.068;2024-02-04T00:02:22;11.20;99.90
5061;DHT22;2549;52.128;21.068;2024-02-04T00:04:52;11.20;99.90
5061;DHT22;2549;52.128;21.068;2024-02-04T00:07:19;11.10;99.90
5061;DHT22;2549;52.128;21.068;2024-02-04T00:09:46;11.10;99.90
5061;DHT22;2549;52.128;21.068;2024-02-04T00:12:13;11.10;99.80
5061;DHT22;2549;52.128;21.068;2024-02-04T00:14:40;11.10;99.60
5061;DHT22;2549;52.128;21.068;2024-02-04T00:17:07;11.10;99.40
5061;DHT22;2549;52.128;21.068;2024-02-04T00:19:34;11.10;99.30
5061;DHT22;2549;52.128;21.068;2024-02-04T00:22:01;11.10;99.20
5061;DHT22;2549;52.128;21.068;2024-02-04T00:24:28;11.10;99.20
5061;DHT22;2549;52.128;21.068;2024-02-04T00:26:55;11.10;99.20
5061;DHT22;2549;52.128;21.068;2024-02-04T00:29:21;11.10;99.10
5061;DHT22;2549;52.128;21.068;2024-02-04T00:31:48;11.10;99.00
5061;DHT22;2549;52.128;21.068;2024-02-04T00:34:15;11.10;99.00
5061;DHT22;2549;52.128;21.068;2024-02-04T00:36:43;11.10;99.10
5061;DHT22;2549;52.128;21.068;2024-02-04T00:39:09;11.10;99.00
5061;DHT22;2549;52.128;21.068;2024-02-04T00:41:36;11.00;99.00
5061;DHT22;2549;52.128;21.068;2024-02-04T00:44:03;11.00;99.00
5061;DHT22;2549;52.128;21.068;2024-02-04T00:46:30;11.00;99.10
5061;DHT22;2549;52.128;21.068;2024-02-04T00:48:57;11.00;99.10
5061;DHT22;2549;52.128;21.068;2024-02-04T00:51:24;11.00;99.10
5061;DHT22;2549;52.128;21.068;2024-02-04T00:53:51;11.00;99.10
5061;DHT22;2549;52.128;21.068;2024-02-04T00:56:19;11.00;99.10
5061;DHT22;2549;52.128;21.068;2024-02-04T00:58:46;11.00;99.20
5061;DHT22;2549;52.128;21.068;2024-02-04T01:01:13;11.00;99.30
5061;DHT22;2549;52.128;21.068;2024-02-04T01:03:40;11.00;99.50
5061;DHT22;2549;52.128;21.068;2024-02-04T01:06:07;11.00;99.60
5061;DHT22;2549;52.128;21.068;2024-02-04T01:08:34;11.00;99.70
5061;DHT22;2549;52.128;21.068;2024-02-04T01:11:01;11.00;99.80
5061;DHT22;2549;52.128;21.068;2024-02-04T01:13:28;10.90;99.80
5061;DHT22;2549;52.128;21.068;2024-02-04T01:15:55;10.90;99.90
5061;DHT22;2549;52.128;21.068;2024-02-04T01:18:22;10.90;99.90
5061;DHT22;2549;52.128;21.068;2024-02-04T01:20:49;10.90;99.90
5061;DHT22;2549;52.128;21.068;2024-02-04T01:23:16;10.90;99.90
5061;DHT22;2549;52.128;21.068;2024-02-04T01:25:46;10.90;99.90
5061;DHT22;2549;52.128;21.068;2024-02-04T01:28:13;10.90;99.90
5061;DHT22;2549;52.128;21.068;2024-02-04T01:30:40;11.00;99.90
5061;DHT22;2549;52.128;21.068;2024-02-04T01:33:07;10.90;99.90
5061;DHT22;2549;52.128;21.068;2024-02-04T01:35:34;10.90;99.90
5061;DHT22;2549;52.128;21.068;2024-02-04T01:38:01;10.90;99.90
5061;DHT22;2549;52.128;21.068;2024-02-04T01:40:28;10.90;99.90
5061;DHT22;2549;52.128;21.068;2024-02-04T01:42:55;10.80;99.90
5061;DHT22;2549;52.128;21.068;2024-02-04T01:45:23;10.80;99.90
5061;DHT22;2549;52.128;21.068;2024-02-04T01:47:51;10.80;99.90
5061;DHT22;2549;52.128;21.068;2024-02-04T01:50:19;10.90;99.90
5061;DHT22;2549;52.128;21.068;2024-02-04T01:52:47;10.80;99.90
5061;DHT22;2549;52.128;21.068;2024-02-04T01:55:15;10.80;99.90
5061;DHT22;2549;52.128;21.068;2024-02-04T01:57:42;10.80;99.90
5061;DHT22;2549;52.128;21.068;2024-02-04T02:00:10;10.80;99.90
5061;DHT22;2549;52.128;21.068;2024-02-04T02:02:40;10.80;99.90
5061;DHT22;2549;52.128;21.068;2024-02-04T02:05:10;10.80;99.90
5061;DHT22;2549;52.128;21.068;2024-02-04T02:07:37;10.80;99.90
5061;DHT22;2549;52.128;21.068;2024-02-04T02:10:04;10.80;99.90
5061;DHT22;2549;52.128;21.068;2024-02-04T02:12:39;10.70;99.90
5061;DHT22;2549;52.128;21.068;2024-02-04T02:15:45;10.70;99.90
5061;DHT22;2549;52.128;21.068;2024-02-04T02:18:14;10.70;99.90
5061;DHT22;2549;52.128;21.068;2024-02-04T02:23:48;10.70;99.90
5061;DHT22;2549;52.128;21.068;2024-02-04T02:26:17;10.70;99.90
5061;DHT22;2549;52.128;21.068;2024-02-04T02:28:45;10.70;99.90
5061;DHT22;2549;52.128;21.068;2024-02-04T02:31:12;10.70;99.90
5061;DHT22;2549;52.128;21.068;2024-02-04T02:33:39;10.70;99.90
5061;DHT22;2549;52.128;21.068;2024-02-04T02:36:09;10.70;99.90
5061;DHT22;2549;52.128;21.068;2024-02-04T02:38:46;10.70;99.90
5061;DHT22;2549;52.128;21.068;2024-02-04T02:41:16;10.70;99.90
5061;DHT22;2549;52.128;21.068;2024-02-04T02:43:44;10.70;99.90
5061;DHT22;2549;52.128;21.068;2024-02-04T02:46:12;10.70;99.90
5061;DHT22;2549;52.128;21.068;2024-02-04T02:48:39;10.70;99.90
5061;DHT22;2549;52.128;21.068;2024-02-04T02:51:06;10.70;99.90
5061;DHT22;2549;52.128;21.068;2024-02-04T02:53:33;10.70;99.90
5061;DHT22;2549;52.128;21.068;2024-02-04T02:56:00;10.70;99.90
5061;DHT22;2549;52.128;21.068;2024-02-04T02:58:27;10.70;99.90
5061;DHT22;2549;52.128;21.068;2024-02-04T03:00:53;10.70;99.90
5061;DHT22;2549;52.128;21.068;2024-02-04T03:03:20;10.80;99.90
5061;DHT22;2549;52.128;21.068;2024-02-04T03:05:47;10.80;99.90
5061;DHT22;2549;52.128;21.068;2024-02-04T03:08:14;10.70;99.90
5061;DHT22;2549;52.128;21.068;2024-02-04T03:10:41;10.70;99.90
5061;DHT22;2549;52.128;21.068;2024-02-04T03:13:08;10.70;99.90
5061;DHT22;2549;52.128;21.068;2024-02-04T03:15:35;10.70;99.90
5061;DHT22;2549;52.128;21.068;2024-02-04T03:18:02;10.70;99.90
5061;DHT22;2549;52.128;21.068;2024-02-04T03:20:29;10.70;99.90
5061;DHT22;2549;52.128;21.068;2024-02-04T03:22:57;10.70;99.90
5061;DHT22;2549;52.128;21.068;2024-02-04T03:25:23;10.70;99.90
5061;DHT22;2549;52.128;21.068;2024-02-04T03:27:53;10.70;99.90
5061;DHT22;2549;52.128;21.068;2024-02-04T03:30:20;10.70;99.90
5061;DHT22;2549;52.128;21.068;2024-02-04T03:32:47;10.70;99.90
5061;DHT22;2549;52.128;21.068;2024-02-04T03:35:14;10.70;99.90
5061;DHT22;2549;52.128;21.068;2024-02-04T03:37:41;10.70;99.90
5061;DHT22;2549;52.128;21.068;2024-02-04T03:40:08;10.70;99.90
5061;DHT22;2549;52.128;21.068;2024-02-04T03:42:35;10.70;99.90
5061;DHT22;2549;52.128;21.068;2024-02-04T03:45:02;10.70;99.90
5061;DHT22;2549;52.128;21.068;2024-02-04T03:47:30;10.70;99.90
5061;DHT22;2549;52.128;21.068;2024-02-04T03:49:57;10.70;99.90
5061;DHT22;2549;52.128;21.068;2024-02-04T03:52:24;10.70;99.90
5061;DHT22;2549;52.128;21.068;2024-02-04T03:54:51;10.60;99.90
5061;DHT22;2549;52.128;21.068;2024-02-04T03:57:17;10.60;99.90
5061;DHT22;2549;52.128;21.068;2024-02-04T03:59:45;10.60;99.80
5061;DHT22;2549;52.128;21.068;2024-02-04T04:02:13;10.70;99.70
5061;DHT22;2549;52.128;21.068;2024-02-04T04:04:40;10.60;99.50
5061;DHT22;2549;52.128;21.068;2024-02-04T04:07:10;10.60;99.50
5061;DHT22;2549;52.128;21.068;2024-02-04T04:09:37;10.70;99.50
5061;DHT22;2549;52.128;21.068;2024-02-04T04:12:04;10.70;99.40
5061;DHT22;2549;52.128;21.068;2024-02-04T04:14:31;10.70;99.30
5061;DHT22;2549;52.128;21.068;2024-02-04T04:16:58;10.70;99.20
5061;DHT22;2549;52.128;21.068;2024-02-04T04:19:24;10.70;99.10
5061;DHT22;2549;52.128;21.068;2024-02-04T04:21:52;10.70;99.20
5061;DHT22;2549;52.128;21.068;2024-02-04T04:24:21;10.70;99.00
5061;DHT22;2549;52.128;21.068;2024-02-04T04:26:49;10.70;98.70
5061;DHT22;2549;52.128;21.068;2024-02-04T04:29:15;10.70;98.70
5061;DHT22;2549;52.128;21.068;2024-02-04T04:31:42;10.60;98.70
5061;DHT22;2549;52.128;21.068;2024-02-04T04:34:09;10.70;98.70
5061;DHT22;2549;52.128;21.068;2024-02-04T04:36:36;10.70;98.50
5061;DHT22;2549;52.128;21.068;2024-02-04T04:39:03;10.60;98.30
5061;DHT22;2549;52.128;21.068;2024-02-04T04:41:30;10.60;98.30
5061;DHT22;2549;52.128;21.068;2024-02-04T04:43:57;10.50;97.40
5061;DHT22;2549;52.128;21.068;2024-02-04T04:46:24;10.40;97.80
5061;DHT22;2549;52.128;21.068;2024-02-04T04:48:51;10.30;98.20
5061;DHT22;2549;52.128;21.068;2024-02-04T04:51:19;10.20;98.50
5061;DHT22;2549;52.128;21.068;2024-02-04T04:53:46;10.20;98.70
5061;DHT22;2549;52.128;21.068;2024-02-04T04:56:13;10.20;98.60
5061;DHT22;2549;52.128;21.068;2024-02-04T04:58:40;10.10;98.70
5061;DHT22;2549;52.128;21.068;2024-02-04T05:01:06;10.20;98.80
5061;DHT22;2549;52.128;21.068;2024-02-04T05:03:34;10.10;98.70
5061;DHT22;2549;52.128;21.068;2024-02-04T05:06:01;10.10;98.60
5061;DHT22;2549;52.128;21.068;2024-02-04T05:08:27;10.10;98.60
5061;DHT22;2549;52.128;21.068;2024-02-04T05:10:54;10.10;98.70
5061;DHT22;2549;52.128;21.068;2024-02-04T05:13:21;10.10;98.80
5061;DHT22;2549;52.128;21.068;2024-02-04T05:15:48;10.10;98.90
5061;DHT22;2549;52.128;21.068;2024-02-04T05:18:15;10.10;99.00
5061;DHT22;2549;52.128;21.068;2024-02-04T05:20:42;10.20;99.00
5061;DHT22;2549;52.128;21.068;2024-02-04T05:23:10;10.10;98.80
5061;DHT22;2549;52.128;21.068;2024-02-04T05:25:37;10.10;98.70
5061;DHT22;2549;52.128;21.068;2024-02-04T05:28:04;10.10;98.60
5061;DHT22;2549;52.128;21.068;2024-02-04T05:30:32;10.10;98.70
5061;DHT22;2549;52.128;21.068;2024-02-04T05:32:59;10.10;98.70
5061;DHT22;2549;52.128;21.068;2024-02-04T05:35:26;10.10;98.60
5061;DHT22;2549;52.128;21.068;2024-02-04T05:37:53;10.10;98.60
5061;DHT22;2549;52.128;21.068;2024-02-04T05:40:20;10.10;98.80
5061;DHT22;2549;52.128;21.068;2024-02-04T05:42:47;10.00;98.70
5061;DHT22;2549;52.128;21.068;2024-02-04T05:45:14;10.00;98.90
5061;DHT22;2549;52.128;21.068;2024-02-04T05:47:41;10.00;98.70
5061;DHT22;2549;52.128;21.068;2024-02-04T05:50:08;9.90;99.40
5061;DHT22;2549;52.128;21.068;2024-02-04T05:52:35;9.90;98.90
5061;DHT22;2549;52.128;21.068;2024-02-04T05:55:02;9.90;98.60
5061;DHT22;2549;52.128;21.068;2024-02-04T05:57:31;9.90;98.50
5061;DHT22;2549;52.128;21.068;2024-02-04T05:59:58;9.90;98.40
5061;DHT22;2549;52.128;21.068;2024-02-04T06:02:26;9.90;98.30
5061;DHT22;2549;52.128;21.068;2024-02-04T06:04:53;9.90;98.30
5061;DHT22;2549;52.128;21.068;2024-02-04T06:07:20;9.90;98.30
5061;DHT22;2549;52.128;21.068;2024-02-04T06:09:47;9.90;98.40
5061;DHT22;2549;52.128;21.068;2024-02-04T06:12:14;9.90;98.40
5061;DHT22;2549;52.128;21.068;2024-02-04T06:14:41;9.90;98.50
5061;DHT22;2549;52.128;21.068;2024-02-04T06:17:08;9.90;98.50
5061;DHT22;2549;52.128;21.068;2024-02-04T06:19:35;9.90;98.60
5061;DHT22;2549;52.128;21.068;2024-02-04T06:22:02;9.90;98.60
5061;DHT22;2549;52.128;21.068;2024-02-04T06:24:29;9.90;98.70
5061;DHT22;2549;52.128;21.068;2024-02-04T06:26:56;10.00;98.30
5061;DHT22;2549;52.128;21.068;2024-02-04T06:29:23;10.00;98.30
5061;DHT22;2549;52.128;21.068;2024-02-04T06:31:50;9.90;98.90
5061;DHT22;2549;52.128;21.068;2024-02-04T06:34:17;9.90;99.00
5061;DHT22;2549;52.128;21.068;2024-02-04T06:36:44;9.90;99.10
5061;DHT22;2549;52.128;21.068;2024-02-04T06:39:12;9.90;99.10
5061;DHT22;2549;52.128;21.068;2024-02-04T06:41:39;9.90;99.20
5061;DHT22;2549;52.128;21.068;2024-02-04T06:44:06;9.90;99.30
5061;DHT22;2549;52.128;21.068;2024-02-04T06:46:32;9.80;99.50
5061;DHT22;2549;52.128;21.068;2024-02-04T06:48:59;9.90;99.30
5061;DHT22;2549;52.128;21.068;2024-02-04T06:51:26;9.80;99.40
5061;DHT22;2549;52.128;21.068;2024-02-04T06:53:54;9.80;99.40
5061;DHT22;2549;52.128;21.068;2024-02-04T06:56:20;9.80;99.40
5061;DHT22;2549;52.128;21.068;2024-02-04T06:58:47;9.80;99.40
5061;DHT22;2549;52.128;21.068;2024-02-04T07:01:14;9.80;99.40
5061;DHT22;2549;52.128;21.068;2024-02-04T07:03:41;9.80;99.40
5061;DHT22;2549;52.128;21.068;2024-02-04T07:06:08;9.80;99.20
5061;DHT22;2549;52.128;21.068;2024-02-04T07:08:35;9.80;99.20
5061;DHT22;2549;52.128;21.068;2024-02-04T07:11:02;9.70;99.00
5061;DHT22;2549;52.128;21.068;2024-02-04T07:13:30;9.70;99.10
5061;DHT22;2549;52.128;21.068;2024-02-04T07:15:57;9.70;99.40
5061;DHT22;2549;52.128;21.068;2024-02-04T07:18:24;9.70;99.00
5061;DHT22;2549;52.128;21.068;2024-02-04T07:20:51;9.70;98.90
5061;DHT22;2549;52.128;21.068;2024-02-04T07:23:18;9.70;98.80
5061;DHT22;2549;52.128;21.068;2024-02-04T07:25:45;9.70;98.80
5061;DHT22;2549;52.128;21.068;2024-02-04T07:28:12;9.60;98.80
5061;DHT22;2549;52.128;21.068;2024-02-04T07:30:39;9.70;98.90
5061;DHT22;2549;52.128;21.068;2024-02-04T07:33:06;9.70;98.80
5061;DHT22;2549;52.128;21.068;2024-02-04T07:35:34;9.70;98.80
5061;DHT22;2549;52.128;21.068;2024-02-04T07:38:01;9.70;98.80
5061;DHT22;2549;52.128;21.068;2024-02-04T07:40:28;9.70;98.80
5061;DHT22;2549;52.128;21.068;2024-02-04T07:42:54;9.70;98.80
5061;DHT22;2549;52.128;21.068;2024-02-04T07:45:22;9.70;98.70
5061;DHT22;2549;52.128;21.068;2024-02-04T07:47:49;9.80;98.80
5061;DHT22;2549;52.128;21.068;2024-02-04T07:50:16;9.80;98.80
5061;DHT22;2549;52.128;21.068;2024-02-04T07:52:43;9.70;98.70
5061;DHT22;2549;52.128;21.068;2024-02-04T07:55:11;9.70;98.70
5061;DHT22;2549;52.128;21.068;2024-02-04T07:57:38;9.80;98.80
5061;DHT22;2549;52.128;21.068;2024-02-04T08:00:06;9.80;98.70
5061;DHT22;2549;52.128;21.068;2024-02-04T08:02:33;9.80;98.70
5061;DHT22;2549;52.128;21.068;2024-02-04T08:05:00;9.80;98.80
5061;DHT22;2549;52.128;21.068;2024-02-04T08:07:27;9.80;98.70
5061;DHT22;2549;52.128;21.068;2024-02-04T08:09:54;9.80;99.00
5061;DHT22;2549;52.128;21.068;2024-02-04T08:12:21;9.80;98.70
5061;DHT22;2549;52.128;21.068;2024-02-04T08:14:48;9.80;98.70
5061;DHT22;2549;52.128;21.068;2024-02-04T08:17:15;9.80;98.70
5061;DHT22;2549;52.128;21.068;2024-02-04T08:19:42;9.90;98.70
5061;DHT22;2549;52.128;21.068;2024-02-04T08:22:09;9.90;98.60
5061;DHT22;2549;52.128;21.068;2024-02-04T08:24:36;9.90;98.60
5061;DHT22;2549;52.128;21.068;2024-02-04T08:27:03;9.90;98.60
5061;DHT22;2549;52.128;21.068;2024-02-04T08:29:31;9.90;98.60
5061;DHT22;2549;52.128;21.068;2024-02-04T08:31:57;9.90;98.40
5061;DHT22;2549;52.128;21.068;2024-02-04T08:34:24;9.90;98.50
5061;DHT22;2549;52.128;21.068;2024-02-04T08:36:52;9.90;98.50
5061;DHT22;2549;52.128;21.068;2024-02-04T08:39:19;9.90;98.40
5061;DHT22;2549;52.128;21.068;2024-02-04T08:41:46;9.80;98.40
5061;DHT22;2549;52.128;21.068;2024-02-04T08:44:13;9.90;98.50
5061;DHT22;2549;52.128;21.068;2024-02-04T08:46:57;9.90;98.30
5061;DHT22;2549;52.128;21.068;2024-02-04T08:49:24;9.90;98.10
5061;DHT22;2549;52.128;21.068;2024-02-04T08:51:52;9.90;98.00
5061;DHT22;2549;52.128;21.068;2024-02-04T08:54:18;9.80;98.00
5061;DHT22;2549;52.128;21.068;2024-02-04T08:56:46;9.80;98.00
5061;DHT22;2549;52.128;21.068;2024-02-04T08:59:13;9.80;97.90
5061;DHT22;2549;52.128;21.068;2024-02-04T09:01:40;9.80;98.00
5061;DHT22;2549;52.128;21.068;2024-02-04T09:04:07;9.80;97.90
5061;DHT22;2549;52.128;21.068;2024-02-04T09:06:35;9.80;97.70
5061;DHT22;2549;52.128;21.068;2024-02-04T09:09:01;9.80;97.50
5061;DHT22;2549;52.128;21.068;2024-02-04T09:11:29;9.80;97.60
5061;DHT22;2549;52.128;21.068;2024-02-04T09:13:55;9.80;97.70
5061;DHT22;2549;52.128;21.068;2024-02-04T09:16:22;9.80;97.60
5061;DHT22;2549;52.128;21.068;2024-02-04T09:18:49;9.80;97.50
5061;DHT22;2549;52.128;21.068;2024-02-04T09:21:16;9.80;97.60
5061;DHT22;2549;52.128;21.068;2024-02-04T09:23:44;9.80;97.40
5061;DHT22;2549;52.128;21.068;2024-02-04T09:26:11;9.90;97.40
5061;DHT22;2549;52.128;21.068;2024-02-04T09:28:40;9.90;97.40
5061;DHT22;2549;52.128;21.068;2024-02-04T09:31:10;9.90;97.30
5061;DHT22;2549;52.128;21.068;2024-02-04T09:33:37;9.90;97.20
5061;DHT22;2549;52.128;21.068;2024-02-04T09:36:04;9.90;97.10
5061;DHT22;2549;52.128;21.068;2024-02-04T09:38:32;9.90;97.20
5061;DHT22;2549;52.128;21.068;2024-02-04T09:41:00;9.90;97.10
5061;DHT22;2549;52.128;21.068;2024-02-04T09:43:33;9.90;97.10
5061;DHT22;2549;52.128;21.068;2024-02-04T09:46:03;9.90;97.20
5061;DHT22;2549;52.128;21.068;2024-02-04T09:48:32;9.80;97.20
5061;DHT22;2549;52.128;21.068;2024-02-04T09:51:00;9.90;97.20
5061;DHT22;2549;52.128;21.068;2024-02-04T09:53:35;9.90;97.30
5061;DHT22;2549;52.128;21.068;2024-02-04T09:56:03;9.90;97.30
5061;DHT22;2549;52.128;21.068;2024-02-04T09:58:30;9.90;97.20
5061;DHT22;2549;52.128;21.068;2024-02-04T10:01:00;9.90;97.20
5061;DHT22;2549;52.128;21.068;2024-02-04T10:03:27;9.90;97.30
5061;DHT22;2549;52.128;21.068;2024-02-04T10:05:55;9.90;97.30
5061;DHT22;2549;52.128;21.068;2024-02-04T10:08:23;9.90;97.30
5061;DHT22;2549;52.128;21.068;2024-02-04T10:10:50;9.90;97.20
5061;DHT22;2549;52.128;21.068;2024-02-04T10:13:17;9.90;97.20
5061;DHT22;2549;52.128;21.068;2024-02-04T10:19:32;10.00;96.60
5061;DHT22;2549;52.128;21.068;2024-02-04T10:22:03;9.90;97.10
5061;DHT22;2549;52.128;21.068;2024-02-04T10:24:30;10.00;96.70
5061;DHT22;2549;52.128;21.068;2024-02-04T10:26:58;10.00;96.80
5061;DHT22;2549;52.128;21.068;2024-02-04T10:29:25;10.00;96.80
5061;DHT22;2549;52.128;21.068;2024-02-04T10:31:56;10.00;96.90
5061;DHT22;2549;52.128;21.068;2024-02-04T10:34:27;10.00;96.90
5061;DHT22;2549;52.128;21.068;2024-02-04T10:36:57;10.00;96.90
5061;DHT22;2549;52.128;21.068;2024-02-04T10:39:24;10.00;96.90
5061;DHT22;2549;52.128;21.068;2024-02-04T10:41:52;10.00;96.80
5061;DHT22;2549;52.128;21.068;2024-02-04T10:44:23;10.00;96.80
5061;DHT22;2549;52.128;21.068;2024-02-04T10:46:51;10.00;96.80
5061;DHT22;2549;52.128;21.068;2024-02-04T10:49:19;10.00;96.80
5061;DHT22;2549;52.128;21.068;2024-02-04T10:51:47;10.00;96.90
5061;DHT22;2549;52.128;21.068;2024-02-04T10:54:15;10.10;96.90
5061;DHT22;2549;52.128;21.068;2024-02-04T10:56:46;10.10;96.80
5061;DHT22;2549;52.128;21.068;2024-02-04T10:59:17;10.10;96.70
5061;DHT22;2549;52.128;21.068;2024-02-04T11:01:46;10.10;96.70
5061;DHT22;2549;52.128;21.068;2024-02-04T11:04:16;10.10;96.90
5061;DHT22;2549;52.128;21.068;2024-02-04T11:06:44;10.10;96.90
5061;DHT22;2549;52.128;21.068;2024-02-04T11:09:12;10.10;97.00
5061;DHT22;2549;52.128;21.068;2024-02-04T11:11:41;10.10;97.10
5061;DHT22;2549;52.128;21.068;2024-02-04T11:14:11;10.10;97.30
5061;DHT22;2549;52.128;21.068;2024-02-04T11:19:52;10.20;97.60
5061;DHT22;2549;52.128;21.068;2024-02-04T11:22:31;10.20;97.90
5061;DHT22;2549;52.128;21.068;2024-02-04T11:25:17;10.20;98.10
5061;DHT22;2549;52.128;21.068;2024-02-04T11:27:49;10.10;98.40
5061;DHT22;2549;52.128;21.068;2024-02-04T11:30:16;10.10;98.60
5061;DHT22;2549;52.128;21.068;2024-02-04T11:32:45;10.20;98.80
5061;DHT22;2549;52.128;21.068;2024-02-04T11:35:13;10.10;98.80
5061;DHT22;2549;52.128;21.068;2024-02-04T11:37:41;10.10;98.60
5061;DHT22;2549;52.128;21.068;2024-02-04T11:40:14;10.10;98.70
5061;DHT22;2549;52.128;21.068;2024-02-04T11:42:43;10.10;98.80
5061;DHT22;2549;52.128;21.068;2024-02-04T11:45:12;10.10;98.90
5061;DHT22;2549;52.128;21.068;2024-02-04T11:47:40;10.10;99.00
5061;DHT22;2549;52.128;21.068;2024-02-04T11:50:08;10.10;99.30
5061;DHT22;2549;52.128;21.068;2024-02-04T11:52:37;10.10;99.40
5061;DHT22;2549;52.128;21.068;2024-02-04T11:55:05;10.10;99.80
5061;DHT22;2549;52.128;21.068;2024-02-04T11:57:34;10.10;99.80
5061;DHT22;2549;52.128;21.068;2024-02-04T12:00:02;10.10;99.90
5061;DHT22;2549;52.128;21.068;2024-02-04T12:02:33;10.10;99.90
5061;DHT22;2549;52.128;21.068;2024-02-04T12:05:00;10.10;99.90
5061;DHT22;2549;52.128;21.068;2024-02-04T12:07:28;10.10;99.90
5061;DHT22;2549;52.128;21.068;2024-02-04T12:09:56;10.10;99.90
5061;DHT22;2549;52.128;21.068;2024-02-04T12:12:24;10.10;99.90
5061;DHT22;2549;52.128;21.068;2024-02-04T12:14:52;10.10;99.90
5061;DHT22;2549;52.128;21.068;2024-02-04T12:17:20;10.10;99.90
5061;DHT22;2549;52.128;21.068;2024-02-04T12:19:48;10.10;99.90
5061;DHT22;2549;52.128;21.068;2024-02-04T12:22:17;10.10;99.90
5061;DHT22;2549;52.128;21.068;2024-02-04T12:24:45;10.10;99.90
5061;DHT22;2549;52.128;21.068;2024-02-04T12:27:15;10.10;99.90
5061;DHT22;2549;52.128;21.068;2024-02-04T12:29:42;10.10;99.90
5061;DHT22;2549;52.128;21.068;2024-02-04T12:32:13;10.10;99.90
5061;DHT22;2549;52.128;21.068;2024-02-04T12:34:40;10.20;99.90
5061;DHT22;2549;52.128;21.068;2024-02-04T12:37:08;10.20;99.90
5061;DHT22;2549;52.128;21.068;2024-02-04T12:39:37;10.20;99.90
5061;DHT22;2549;52.128;21.068;2024-02-04T12:42:04;10.10;99.90
5061;DHT22;2549;52.128;21.068;2024-02-04T12:44:31;10.20;99.90
5061;DHT22;2549;52.128;21.068;2024-02-04T12:46:58;10.20;99.90
5061;DHT22;2549;52.128;21.068;2024-02-04T12:49:25;10.20;99.90
5061;DHT22;2549;52.128;21.068;2024-02-04T12:52:06;10.20;99.90
5061;DHT22;2549;52.128;21.068;2024-02-04T12:54:44;10.20;99.90
5061;DHT22;2549;52.128;21.068;2024-02-04T12:57:22;10.20;99.90
5061;DHT22;2549;52.128;21.068;2024-02-04T12:59:50;10.20;99.90
5061;DHT22;2549;52.128;21.068;2024-02-04T13:02:17;10.20;99.90
5061;DHT22;2549;52.128;21.068;2024-02-04T13:04:43;10.20;99.90
5061;DHT22;2549;52.128;21.068;2024-02-04T13:07:12;10.20;99.90
5061;DHT22;2549;52.128;21.068;2024-02-04T13:09:41;10.20;99.90
5061;DHT22;2549;52.128;21.068;2024-02-04T13:12:09;10.20;99.90
5061;DHT22;2549;52.128;21.068;2024-02-04T13:14:42;10.20;99.90
5061;DHT22;2549;52.128;21.068;2024-02-04T13:17:09;10.20;99.90
5061;DHT22;2549;52.128;21.068;2024-02-04T13:19:38;10.20;99.90
5061;DHT22;2549;52.128;21.068;2024-02-04T13:22:06;10.20;99.90
5061;DHT22;2549;52.128;21.068;2024-02-04T13:24:34;10.20;99.90
5061;DHT22;2549;52.128;21.068;2024-02-04T13:27:02;10.20;99.90
5061;DHT22;2549;52.128;21.068;2024-02-04T13:29:30;10.20;99.90
5061;DHT22;2549;52.128;21.068;2024-02-04T13:31:57;10.10;99.90
5061;DHT22;2549;52.128;21.068;2024-02-04T13:34:24;10.10;99.90
5061;DHT22;2549;52.128;21.068;2024-02-04T13:36:51;10.10;99.90
5061;DHT22;2549;52.128;21.068;2024-02-04T13:39:18;10.10;99.90
5061;DHT22;2549;52.128;21.068;2024-02-04T13:41:45;10.10;99.90
5061;DHT22;2549;52.128;21.068;2024-02-04T13:44:12;10.10;99.90
5061;DHT22;2549;52.128;21.068;2024-02-04T13:46:40;10.00;99.90
5061;DHT22;2549;52.128;21.068;2024-02-04T13:49:10;10.00;99.90
5061;DHT22;2549;52.128;21.068;2024-02-04T13:51:39;10.00;99.90
5061;DHT22;2549;52.128;21.068;2024-02-04T13:54:11;10.00;99.90
5061;DHT22;2549;52.128;21.068;2024-02-04T13:56:44;10.00;99.90
5061;DHT22;2549;52.128;21.068;2024-02-04T13:59:12;10.00;99.90
5061;DHT22;2549;52.128;21.068;2024-02-04T14:01:39;10.00;99.90
5061;DHT22;2549;52.128;21.068;2024-02-04T14:04:06;10.00;99.90
5061;DHT22;2549;52.128;21.068;2024-02-04T14:06:33;10.00;99.90
5061;DHT22;2549;52.128;21.068;2024-02-04T14:09:00;10.00;99.90
5061;DHT22;2549;52.128;21.068;2024-02-04T14:11:27;10.00;99.90
5061;DHT22;2549;52.128;21.068;2024-02-04T14:13:54;10.10;99.90
5061;DHT22;2549;52.128;21.068;2024-02-04T14:16:21;10.00;99.90
5061;DHT22;2549;52.128;21.068;2024-02-04T14:18:48;10.00;99.90
5061;DHT22;2549;52.128;21.068;2024-02-04T14:21:15;10.00;99.90
5061;DHT22;2549;52.128;21.068;2024-02-04T14:23:41;10.00;99.90
5061;DHT22;2549;52.128;21.068;2024-02-04T14:26:17;10.00;99.90
5061;DHT22;2549;52.128;21.068;2024-02-04T14:28:44;10.00;99.90
5061;DHT22;2549;52.128;21.068;2024-02-04T14:31:11;10.00;99.90
5061;DHT22;2549;52.128;21.068;2024-02-04T14:33:39;10.00;99.90
5061;DHT22;2549;52.128;21.068;2024-02-04T14:36:07;10.00;99.90
5061;DHT22;2549;52.128;21.068;2024-02-04T14:38:34;10.00;99.90
5061;DHT22;2549;52.128;21.068;2024-02-04T14:41:03;10.10;99.90
5061;DHT22;2549;52.128;21.068;2024-02-04T14:43:29;10.10;99.90
5061;DHT22;2549;52.128;21.068;2024-02-04T14:45:56;10.10;99.90
5061;DHT22;2549;52.128;21.068;2024-02-04T14:48:24;10.10;99.80
5061;DHT22;2549;52.128;21.068;2024-02-04T14:50:51;10.10;99.50
5061;DHT22;2549;52.128;21.068;2024-02-04T14:53:21;10.10;99.40
5061;DHT22;2549;52.128;21.068;2024-02-04T14:55:48;10.10;99.30
5061;DHT22;2549;52.128;21.068;2024-02-04T14:58:15;10.20;99.20
5061;DHT22;2549;52.128;21.068;2024-02-04T15:00:42;10.20;99.00
5061;DHT22;2549;52.128;21.068;2024-02-04T15:03:09;10.20;99.20
5061;DHT22;2549;52.128;21.068;2024-02-04T15:05:36;10.20;98.80
5061;DHT22;2549;52.128;21.068;2024-02-04T15:08:03;10.20;98.70
5061;DHT22;2549;52.128;21.068;2024-02-04T15:10:31;10.20;98.70
5061;DHT22;2549;52.128;21.068;2024-02-04T15:12:58;10.20;98.70
5061;DHT22;2549;52.128;21.068;2024-02-04T15:15:25;10.20;98.60
5061;DHT22;2549;52.128;21.068;2024-02-04T15:17:53;10.20;98.60
5061;DHT22;2549;52.128;21.068;2024-02-04T15:20:20;10.20;98.50
5061;DHT22;2549;52.128;21.068;2024-02-04T15:22:49;10.20;98.60
5061;DHT22;2549;52.128;21.068;2024-02-04T15:25:16;10.20;98.50
5061;DHT22;2549;52.128;21.068;2024-02-04T15:27:45;10.20;98.50
5061;DHT22;2549;52.128;21.068;2024-02-04T15:30:15;10.20;98.30
5061;DHT22;2549;52.128;21.068;2024-02-04T15:32:43;10.20;98.30
5061;DHT22;2549;52.128;21.068;2024-02-04T15:35:11;10.20;98.30
5061;DHT22;2549;52.128;21.068;2024-02-04T15:37:39;10.20;98.20
5061;DHT22;2549;52.128;21.068;2024-02-04T15:40:06;10.20;98.20
5061;DHT22;2549;52.128;21.068;2024-02-04T15:42:33;10.20;98.20
5061;DHT22;2549;52.128;21.068;2024-02-04T15:45:00;10.20;98.30
5061;DHT22;2549;52.128;21.068;2024-02-04T15:47:27;10.20;98.20
5061;DHT22;2549;52.128;21.068;2024-02-04T15:49:56;10.20;98.00
5061;DHT22;2549;52.128;21.068;2024-02-04T15:52:24;10.30;98.00
5061;DHT22;2549;52.128;21.068;2024-02-04T15:54:51;10.30;98.10
5061;DHT22;2549;52.128;21.068;2024-02-04T15:57:20;10.30;98.00
5061;DHT22;2549;52.128;21.068;2024-02-04T15:59:58;10.30;97.90
5061;DHT22;2549;52.128;21.068;2024-02-04T16:02:28;10.30;97.90
5061;DHT22;2549;52.128;21.068;2024-02-04T16:04:55;10.30;97.90